Time;durP1;ratioP1;P1;durP2;ratioP2;P2;SDS_P1;SDS_P2;PMS_P1;PMS_P2;Temp;Humidity;BMP_temperature;BMP_pressure;BME280_temperature;BME280_humidity;BME280_pressure;Samples;Min_cycle;Max_cycle;Signal;HPM_P1;HPM_P2
2022/02/26 00:00:07;;;;;;;;;;;;;;;3.85;44.09;93506.63;2052702;69;20054;-71
2022/02/26 00:02:32;;;;;;;;;;;;;;;4.10;43.08;93512.50;2052657;69;20063;-69
2022/02/26 00:04:58;;;;;;;;;;;;;;;4.07;43.47;93510.81;2052432;70;20141;-70
2022/02/26 00:07:23;;;;;;;;;;;;;;;3.62;45.26;93508.50;2052394;70;20070;-70
2022/02/26 00:09:49;;;;;;;;;;;;;;;3.68;45.21;93504.28;2052324;70;20057;-69
2022/02/26 00:12:14;;;;;;;;;;;;;;;3.44;46.52;93524.91;2052343;70;20046;-69
2022/02/26 00:14:40;;;;;;;;;;;;;;;3.64;46.21;93526.16;2052454;70;20054;-70
2022/02/26 00:17:05;;;;;;;;;;;;;;;3.89;45.44;93545.25;2052244;69;20050;-71
2022/02/26 00:19:32;;;;;;;;;;;;;;;3.86;45.67;93549.16;2052321;70;20053;-69
2022/02/26 00:21:58;;;;;;;;;;;;;;;3.47;48.08;93565.53;2052543;69;20050;-69
2022/02/26 00:24:23;;;;;;;;;;;;;;;3.15;50.99;93562.28;2052353;70;20070;-69
2022/02/26 00:26:50;;;;;;;;;;;;;;;2.83;53.70;93571.59;2052254;69;20064;-69
2022/02/26 00:29:16;;;;;;;;;;;;;;;2.91;54.53;93566.88;2052248;70;20050;-69
2022/02/26 00:31:42;;;;;;;;;;;;;;;3.12;53.18;93568.94;2052426;70;20054;-69
2022/02/26 00:34:07;;;;;;;;;;;;;;;3.47;51.95;93579.47;2052659;70;20053;-69
2022/02/26 00:36:33;;;;;;;;;;;;;;;3.50;52.35;93578.41;2052258;69;20120;-69
2022/02/26 00:38:58;;;;;;;;;;;;;;;3.58;51.60;93580.50;2052318;70;20129;-70
2022/02/26 00:41:26;;;;;;;;;;;;;;;3.43;51.90;93587.41;2052081;70;20039;-73
2022/02/26 00:43:52;;;;;;;;;;;;;;;3.61;51.89;93590.53;2052287;70;20152;-70
2022/02/26 00:46:17;;;;;;;;;;;;;;;3.61;52.22;93591.28;2065230;69;20042;-70
2022/02/26 00:51:44;;;;;;;;;;;;;;;3.23;53.79;93585.38;2060958;69;20070;-70
2022/02/26 00:54:09;;;;;;;;;;;;;;;3.49;52.03;93585.25;2054074;69;20050;-71
2022/02/26 00:56:35;;;;;;;;;;;;;;;3.49;53.00;93590.81;2052079;70;20055;-70
2022/02/26 00:59:00;;;;;;;;;;;;;;;3.47;52.77;93593.38;2052344;69;20469;-71
2022/02/26 01:01:26;;;;;;;;;;;;;;;3.12;54.91;93583.59;2052249;69;20071;-71
2022/02/26 01:03:51;;;;;;;;;;;;;;;2.28;59.23;93586.13;2052250;69;20497;-71
2022/02/26 01:06:16;;;;;;;;;;;;;;;2.68;58.22;93591.66;2065175;69;20389;-70
2022/02/26 01:08:42;;;;;;;;;;;;;;;2.96;57.10;93585.47;2052410;70;20042;-72
2022/02/26 01:11:07;;;;;;;;;;;;;;;2.98;57.21;93594.03;2052227;70;20062;-70
2022/02/26 01:13:33;;;;;;;;;;;;;;;3.10;55.27;93580.59;2051936;70;20444;-70
2022/02/26 01:15:58;;;;;;;;;;;;;;;2.71;58.06;93587.06;2052184;69;20058;-70
2022/02/26 01:18:24;;;;;;;;;;;;;;;2.37;59.90;93582.19;2052116;70;20042;-75
2022/02/26 01:20:49;;;;;;;;;;;;;;;2.86;57.16;93583.69;2052407;70;20057;-70
2022/02/26 01:23:15;;;;;;;;;;;;;;;2.91;56.59;93574.47;2052241;69;20054;-70
2022/02/26 01:25:40;;;;;;;;;;;;;;;2.87;58.04;93579.63;2052192;69;20097;-70
2022/02/26 01:28:06;;;;;;;;;;;;;;;3.06;56.14;93582.97;2052344;69;20049;-70
2022/02/26 01:30:32;;;;;;;;;;;;;;;3.12;56.31;93582.88;2052036;69;20500;-70
2022/02/26 01:32:57;;;;;;;;;;;;;;;3.09;56.30;93590.25;2065188;69;20042;-71
2022/02/26 01:35:23;;;;;;;;;;;;;;;2.93;58.17;93585.81;2052321;70;20054;-70
2022/02/26 01:37:48;;;;;;;;;;;;;;;2.89;58.40;93588.94;2052288;69;20093;-69
2022/02/26 01:40:14;;;;;;;;;;;;;;;2.99;56.15;93580.88;2052129;70;20046;-71
2022/02/26 01:42:40;;;;;;;;;;;;;;;2.96;56.31;93581.94;2052400;70;20049;-71
2022/02/26 01:45:10;;;;;;;;;;;;;;;2.79;57.61;93585.09;2052224;69;20050;-70
2022/02/26 01:47:35;;;;;;;;;;;;;;;2.77;56.46;93585.63;2052207;69;20109;-70
2022/02/26 01:50:00;;;;;;;;;;;;;;;2.77;57.32;93579.34;2052253;70;20444;-70
2022/02/26 01:52:26;;;;;;;;;;;;;;;2.87;56.57;93585.19;2052318;70;20082;-69
2022/02/26 01:54:51;;;;;;;;;;;;;;;2.91;55.93;93582.81;2052085;70;20094;-73
2022/02/26 01:57:23;;;;;;;;;;;;;;;2.86;56.02;93569.78;2052326;70;20149;-71
2022/02/26 01:59:52;;;;;;;;;;;;;;;2.74;56.67;93580.41;2052350;69;20070;-71
2022/02/26 02:02:17;;;;;;;;;;;;;;;2.70;56.45;93583.53;2052333;69;20045;-71
2022/02/26 02:04:43;;;;;;;;;;;;;;;2.65;56.97;93576.03;2052261;69;20236;-71
2022/02/26 02:07:09;;;;;;;;;;;;;;;2.72;56.88;93580.19;2052373;69;20082;-70
2022/02/26 02:09:34;;;;;;;;;;;;;;;2.71;56.66;93579.47;2051803;69;20144;-71
2022/02/26 02:12:00;;;;;;;;;;;;;;;2.59;56.61;93588.56;2052128;70;20057;-71
2022/02/26 02:14:26;;;;;;;;;;;;;;;2.54;56.94;93592.97;2052160;70;20046;-70
2022/02/26 02:16:51;;;;;;;;;;;;;;;2.55;56.65;93591.66;2065043;69;20058;-73
2022/02/26 02:19:16;;;;;;;;;;;;;;;2.41;56.91;93595.75;2052287;70;20053;-72
2022/02/26 02:21:42;;;;;;;;;;;;;;;2.18;57.92;93596.19;2052163;70;20428;-71
2022/02/26 02:24:07;;;;;;;;;;;;;;;2.01;58.95;93596.50;2052077;69;20412;-71
2022/02/26 02:26:34;;;;;;;;;;;;;;;2.26;58.00;93590.75;2051941;69;20401;-71
2022/02/26 02:29:00;;;;;;;;;;;;;;;2.39;57.26;93596.31;2051944;70;20050;-73
2022/02/26 02:31:27;;;;;;;;;;;;;;;2.35;58.06;93590.31;2052131;70;20049;-70
2022/02/26 02:33:53;;;;;;;;;;;;;;;2.31;57.80;93595.44;2051653;69;20062;-72
2022/02/26 02:36:18;;;;;;;;;;;;;;;2.55;54.13;93588.88;2051959;69;20084;-70
2022/02/26 02:38:44;;;;;;;;;;;;;;;2.06;58.92;93591.38;2052020;69;20074;-71
2022/02/26 02:41:10;;;;;;;;;;;;;;;2.46;55.49;93589.34;2052174;70;20059;-71
2022/02/26 02:43:35;;;;;;;;;;;;;;;2.43;56.43;93593.19;2052148;69;20047;-72
2022/02/26 02:46:01;;;;;;;;;;;;;;;2.36;56.90;93591.81;2065130;69;20149;-74
2022/02/26 02:48:27;;;;;;;;;;;;;;;2.26;57.40;93585.94;2052118;70;20086;-71
2022/02/26 02:50:53;;;;;;;;;;;;;;;2.28;56.71;93590.94;2052002;70;20050;-71
2022/02/26 02:53:18;;;;;;;;;;;;;;;2.02;59.38;93600.06;2051994;69;20489;-71
2022/02/26 02:55:45;;;;;;;;;;;;;;;2.27;56.42;93595.03;2051522;70;20532;-73
2022/02/26 02:58:11;;;;;;;;;;;;;;;2.30;56.82;93582.84;2051323;70;20055;-72
2022/02/26 03:00:36;;;;;;;;;;;;;;;2.35;55.17;93590.31;2051378;70;20153;-72
2022/02/26 03:03:02;;;;;;;;;;;;;;;2.29;56.50;93587.66;2051384;69;20485;-73
2022/02/26 03:05:28;;;;;;;;;;;;;;;2.04;57.39;93589.88;2051425;70;20104;-72
2022/02/26 03:07:54;;;;;;;;;;;;;;;2.03;57.61;93596.75;2051340;70;20151;-73
2022/02/26 03:10:20;;;;;;;;;;;;;;;2.09;57.57;93582.72;2051297;69;20058;-72
2022/02/26 03:12:51;;;;;;;;;;;;;;;2.13;57.03;93596.31;2051354;70;20066;-74
2022/02/26 03:15:17;;;;;;;;;;;;;;;2.26;54.76;93587.97;2051378;70;20055;-73
2022/02/26 03:17:44;;;;;;;;;;;;;;;2.09;57.06;93593.84;2051264;70;20086;-73
2022/02/26 03:20:10;;;;;;;;;;;;;;;2.11;56.16;93596.09;2051281;70;20047;-74
2022/02/26 03:22:35;;;;;;;;;;;;;;;1.71;58.76;93596.06;2051814;70;20066;-73
2022/02/26 03:25:00;;;;;;;;;;;;;;;2.08;55.75;93605.50;2051669;69;20525;-73
2022/02/26 03:27:26;;;;;;;;;;;;;;;1.92;58.06;93598.97;2051839;70;20065;-74
2022/02/26 03:29:52;;;;;;;;;;;;;;;1.57;59.24;93600.84;2051826;70;20485;-72
2022/02/26 03:32:17;;;;;;;;;;;;;;;2.12;55.28;93603.91;2051820;70;20054;-72
2022/02/26 03:34:44;;;;;;;;;;;;;;;2.00;56.78;93610.94;2051882;70;20089;-72
2022/02/26 03:37:09;;;;;;;;;;;;;;;1.69;58.94;93607.69;2051942;70;20425;-73
2022/02/26 03:39:35;;;;;;;;;;;;;;;1.85;57.37;93605.91;2051703;70;20220;-72
2022/02/26 03:42:02;;;;;;;;;;;;;;;1.80;58.10;93611.56;2064890;69;20090;-71
2022/02/26 03:44:27;;;;;;;;;;;;;;;1.83;57.36;93614.00;2051732;70;20061;-72
2022/02/26 03:46:53;;;;;;;;;;;;;;;1.72;58.16;93622.53;2051770;70;20042;-72
2022/02/26 03:49:19;;;;;;;;;;;;;;;1.89;57.23;93627.81;2064674;69;20065;-72
2022/02/26 03:51:44;;;;;;;;;;;;;;;1.86;56.91;93632.38;2051932;70;20078;-73
2022/02/26 03:54:10;;;;;;;;;;;;;;;1.90;56.28;93637.63;2051772;69;20057;-74
2022/02/26 03:56:35;;;;;;;;;;;;;;;1.76;57.01;93636.88;2064659;69;20070;-73
2022/02/26 03:59:01;;;;;;;;;;;;;;;1.89;57.00;93636.88;2051810;70;20046;-72
2022/02/26 04:01:26;;;;;;;;;;;;;;;1.90;57.68;93643.19;2051753;70;20136;-72
2022/02/26 04:03:52;;;;;;;;;;;;;;;1.91;57.09;93641.91;2051857;69;20119;-72
2022/02/26 04:06:17;;;;;;;;;;;;;;;2.02;57.00;93650.06;2051788;70;20127;-73
2022/02/26 04:08:42;;;;;;;;;;;;;;;2.10;55.80;93655.69;2051848;69;20420;-72
2022/02/26 04:11:08;;;;;;;;;;;;;;;2.14;56.06;93654.09;2051795;70;20051;-72
2022/02/26 04:13:35;;;;;;;;;;;;;;;1.93;58.08;93656.03;2051764;70;20078;-72
2022/02/26 04:16:01;;;;;;;;;;;;;;;2.02;57.60;93667.47;2051706;70;20058;-72
2022/02/26 04:18:27;;;;;;;;;;;;;;;2.09;57.48;93670.88;2051720;70;20061;-71
2022/02/26 04:20:52;;;;;;;;;;;;;;;2.18;56.74;93676.75;2051845;69;20050;-74
2022/02/26 04:23:18;;;;;;;;;;;;;;;2.13;57.29;93674.09;2051853;70;20141;-72
2022/02/26 04:25:43;;;;;;;;;;;;;;;2.19;57.43;93674.72;2051878;70;20061;-72
2022/02/26 04:28:08;;;;;;;;;;;;;;;2.41;53.92;93668.03;2051715;70;20046;-73
2022/02/26 04:30:35;;;;;;;;;;;;;;;2.48;54.68;93670.91;2051811;69;20157;-73
2022/02/26 04:33:00;;;;;;;;;;;;;;;2.43;54.63;93676.56;2051746;70;20108;-72
2022/02/26 04:35:26;;;;;;;;;;;;;;;2.36;54.89;93675.19;2051766;70;20055;-73
2022/02/26 04:37:51;;;;;;;;;;;;;;;2.39;55.39;93681.72;2051783;70;20110;-72
2022/02/26 04:40:17;;;;;;;;;;;;;;;2.41;54.70;93674.31;2051767;69;20058;-72
2022/02/26 04:42:43;;;;;;;;;;;;;;;2.38;55.94;93680.19;2051704;70;20093;-73
2022/02/26 04:45:10;;;;;;;;;;;;;;;2.14;56.89;93679.09;2051774;69;20056;-72
2022/02/26 04:47:36;;;;;;;;;;;;;;;1.78;58.25;93685.00;2051942;70;20073;-71
2022/02/26 04:50:01;;;;;;;;;;;;;;;2.11;56.04;93684.97;2051844;70;20527;-73
2022/02/26 04:52:27;;;;;;;;;;;;;;;2.17;55.95;93688.41;2051810;69;20078;-73
2022/02/26 04:54:52;;;;;;;;;;;;;;;2.11;55.45;93696.09;2051659;70;20043;-72
2022/02/26 04:57:18;;;;;;;;;;;;;;;2.16;55.26;93695.25;2051826;70;20366;-71
2022/02/26 04:59:43;;;;;;;;;;;;;;;1.95;58.00;93697.88;2051823;69;20077;-72
2022/02/26 05:02:09;;;;;;;;;;;;;;;1.92;58.15;93702.47;2051765;70;20058;-73
2022/02/26 05:04:34;;;;;;;;;;;;;;;2.00;58.79;93695.00;2051993;70;20077;-73
2022/02/26 05:07:00;;;;;;;;;;;;;;;2.03;57.72;93693.22;2051877;70;20064;-72
2022/02/26 05:09:26;;;;;;;;;;;;;;;2.08;56.15;93697.16;2052040;70;20157;-73
2022/02/26 05:11:51;;;;;;;;;;;;;;;2.01;57.73;93696.50;2051873;69;20127;-69
2022/02/26 05:14:16;;;;;;;;;;;;;;;2.09;57.35;93699.41;2051877;69;20149;-71
2022/02/26 05:16:43;;;;;;;;;;;;;;;1.94;58.26;93699.16;2051944;70;20433;-72
2022/02/26 05:19:09;;;;;;;;;;;;;;;2.11;57.50;93702.41;2052139;70;20062;-71
2022/02/26 05:21:34;;;;;;;;;;;;;;;2.02;57.68;93691.72;2064909;69;20094;-71
2022/02/26 05:24:00;;;;;;;;;;;;;;;2.02;57.38;93698.00;2051601;69;20050;-71
2022/02/26 05:26:26;;;;;;;;;;;;;;;1.88;58.45;93701.28;2051581;69;20047;-77
2022/02/26 05:28:51;;;;;;;;;;;;;;;2.06;56.73;93694.91;2051966;70;20765;-74
2022/02/26 05:31:17;;;;;;;;;;;;;;;1.96;57.47;93700.13;2064965;69;20053;-72
2022/02/26 05:33:42;;;;;;;;;;;;;;;2.00;57.52;93694.25;2064949;69;20089;-71
2022/02/26 05:36:08;;;;;;;;;;;;;;;1.99;57.07;93701.09;2051872;70;20047;-73
2022/02/26 05:38:33;;;;;;;;;;;;;;;1.99;56.91;93710.19;2052108;70;20161;-71
2022/02/26 05:40:59;;;;;;;;;;;;;;;1.86;58.33;93715.69;2052008;70;20066;-72
2022/02/26 05:43:24;;;;;;;;;;;;;;;1.86;58.02;93706.63;2051912;70;20042;-72
2022/02/26 05:45:50;;;;;;;;;;;;;;;1.78;57.82;93717.59;2064973;69;20046;-75
2022/02/26 05:48:15;;;;;;;;;;;;;;;1.88;57.73;93712.38;2052150;70;20046;-74
2022/02/26 05:50:41;;;;;;;;;;;;;;;1.81;57.88;93710.25;2052037;70;20054;-76
2022/02/26 05:53:06;;;;;;;;;;;;;;;1.89;57.05;93719.44;2065101;69;20088;-77
2022/02/26 05:55:32;;;;;;;;;;;;;;;1.81;57.99;93721.34;2052007;70;20051;-74
2022/02/26 05:57:59;;;;;;;;;;;;;;;1.83;57.42;93719.53;2051989;69;20057;-72
2022/02/26 06:00:26;;;;;;;;;;;;;;;1.83;59.03;93729.88;2052060;70;20109;-72
2022/02/26 06:02:52;;;;;;;;;;;;;;;1.79;58.35;93727.44;2052078;70;20286;-73
2022/02/26 06:05:17;;;;;;;;;;;;;;;1.77;57.17;93727.19;2051515;70;20082;-72
2022/02/26 06:07:42;;;;;;;;;;;;;;;1.71;58.29;93724.53;2052252;70;20113;-72
2022/02/26 06:10:08;;;;;;;;;;;;;;;1.37;61.41;93740.16;2052199;69;20420;-73
2022/02/26 06:12:34;;;;;;;;;;;;;;;1.60;59.16;93737.81;2052524;69;20476;-73
2022/02/26 06:15:00;;;;;;;;;;;;;;;1.59;59.58;93739.09;2052242;69;20141;-72
2022/02/26 06:17:25;;;;;;;;;;;;;;;1.59;59.59;93744.63;2052245;69;20408;-73
2022/02/26 06:19:50;;;;;;;;;;;;;;;1.36;61.74;93747.72;2052278;70;20483;-71
2022/02/26 06:22:16;;;;;;;;;;;;;;;1.46;61.64;93754.41;2052240;69;20043;-72
2022/02/26 06:24:42;;;;;;;;;;;;;;;1.60;60.41;93757.22;2052143;70;20469;-72
2022/02/26 06:27:08;;;;;;;;;;;;;;;1.66;60.33;93755.88;2052250;70;20089;-72
2022/02/26 06:29:33;;;;;;;;;;;;;;;1.68;60.42;93756.09;2065210;69;20138;-72
2022/02/26 06:31:58;;;;;;;;;;;;;;;1.79;59.14;93757.97;2065209;69;20047;-72
2022/02/26 06:34:24;;;;;;;;;;;;;;;1.70;60.50;93759.13;2052331;70;20511;-74
2022/02/26 06:36:49;;;;;;;;;;;;;;;1.73;61.03;93758.03;2052145;70;20123;-72
2022/02/26 06:39:15;;;;;;;;;;;;;;;1.79;60.73;93757.97;2052310;70;20138;-72
2022/02/26 06:41:40;;;;;;;;;;;;;;;2.01;58.37;93765.19;2052043;69;20046;-72
2022/02/26 06:44:06;;;;;;;;;;;;;;;2.14;57.93;93761.72;2065061;69;20050;-72
2022/02/26 06:46:35;;;;;;;;;;;;;;;2.04;58.92;93762.09;2065244;69;20046;-72
2022/02/26 06:49:01;;;;;;;;;;;;;;;1.52;63.06;93776.53;2052162;69;20050;-72
2022/02/26 06:51:26;;;;;;;;;;;;;;;1.95;59.04;93778.44;2052210;69;20058;-72
2022/02/26 06:53:52;;;;;;;;;;;;;;;1.80;59.94;93778.91;2052119;70;20401;-71
2022/02/26 06:56:17;;;;;;;;;;;;;;;2.01;61.20;93781.84;2052460;70;20111;-77
2022/02/26 06:58:43;;;;;;;;;;;;;;;2.01;61.99;93785.38;2065773;69;20052;-72
2022/02/26 07:01:08;;;;;;;;;;;;;;;2.09;61.83;93791.06;2052630;70;20050;-78
2022/02/26 07:03:34;;;;;;;;;;;;;;;2.07;61.79;93781.78;2065549;69;20066;-73
2022/02/26 07:05:59;;;;;;;;;;;;;;;2.14;62.08;93790.22;2052664;70;20049;-73
2022/02/26 07:08:26;;;;;;;;;;;;;;;2.19;60.47;93788.66;2052558;70;20536;-72
2022/02/26 07:10:52;;;;;;;;;;;;;;;1.73;64.03;93799.69;2052512;69;20093;-73
2022/02/26 07:13:18;;;;;;;;;;;;;;;2.31;59.56;93795.53;2052655;70;20519;-71
2022/02/26 07:15:43;;;;;;;;;;;;;;;1.56;66.17;93801.97;2052592;70;20054;-71
2022/02/26 07:18:10;;;;;;;;;;;;;;;1.41;67.22;93802.41;2052511;69;20115;-71
2022/02/26 07:20:36;;;;;;;;;;;;;;;1.56;67.95;93801.19;2052643;70;20077;-77
2022/02/26 07:23:01;;;;;;;;;;;;;;;1.57;66.32;93806.25;2052779;69;20038;-73
2022/02/26 07:25:26;;;;;;;;;;;;;;;1.54;67.85;93807.28;2052479;70;20551;-73
2022/02/26 07:27:52;;;;;;;;;;;;;;;2.16;62.57;93812.69;2052577;70;20054;-75
2022/02/26 07:30:17;;;;;;;;;;;;;;;2.41;63.27;93815.31;2052564;70;20508;-73
2022/02/26 07:32:43;;;;;;;;;;;;;;;2.73;61.69;93816.03;2052564;69;20455;-72
2022/02/26 07:35:09;;;;;;;;;;;;;;;2.28;64.03;93814.00;2052625;69;20051;-72
2022/02/26 07:37:34;;;;;;;;;;;;;;;2.20;63.29;93815.91;2052562;70;20062;-73
2022/02/26 07:40:00;;;;;;;;;;;;;;;2.45;63.69;93819.28;2052498;69;20058;-74
2022/02/26 07:42:26;;;;;;;;;;;;;;;2.30;64.25;93819.03;2052560;70;20389;-72
2022/02/26 07:44:52;;;;;;;;;;;;;;;2.35;63.95;93820.22;2052677;70;20050;-73
2022/02/26 07:47:17;;;;;;;;;;;;;;;2.66;63.00;93827.03;2052566;70;20051;-72
2022/02/26 07:49:43;;;;;;;;;;;;;;;2.34;63.77;93829.81;2052533;70;20034;-73
2022/02/26 07:52:08;;;;;;;;;;;;;;;2.55;63.43;93833.53;2052590;70;20043;-73
2022/02/26 07:54:34;;;;;;;;;;;;;;;2.50;63.79;93829.56;2052452;69;20066;-72
2022/02/26 07:56:59;;;;;;;;;;;;;;;2.68;62.12;93836.34;2052645;70;20084;-71
2022/02/26 07:59:25;;;;;;;;;;;;;;;2.96;61.20;93837.88;2065486;69;20050;-70
2022/02/26 08:01:51;;;;;;;;;;;;;;;3.12;61.23;93844.41;2052550;70;20042;-70
2022/02/26 08:04:16;;;;;;;;;;;;;;;3.24;58.88;93829.00;2051132;70;20078;-70
2022/02/26 08:06:42;;;;;;;;;;;;;;;3.14;60.82;93839.81;2051217;70;20116;-71
2022/02/26 08:09:07;;;;;;;;;;;;;;;3.03;60.48;93840.03;2051717;70;20088;-73
2022/02/26 08:11:33;;;;;;;;;;;;;;;3.16;60.82;93839.25;2051447;70;20050;-71
2022/02/26 08:13:59;;;;;;;;;;;;;;;3.53;60.79;93839.03;2052407;69;20149;-70
2022/02/26 08:16:25;;;;;;;;;;;;;;;3.60;60.14;93845.22;2052287;70;20542;-70
2022/02/26 08:18:52;;;;;;;;;;;;;;;3.54;60.06;93846.09;2052305;70;20046;-72
2022/02/26 08:21:18;;;;;;;;;;;;;;;3.87;59.29;93843.88;2052354;70;20107;-70
2022/02/26 08:23:43;;;;;;;;;;;;;;;3.86;59.54;93845.19;2052428;70;20466;-70
2022/02/26 08:26:09;;;;;;;;;;;;;;;4.40;57.26;93848.53;2065263;69;20125;-69
2022/02/26 08:28:34;;;;;;;;;;;;;;;4.28;56.52;93846.00;2052524;70;20541;-70
2022/02/26 08:30:59;;;;;;;;;;;;;;;2.56;62.66;93848.91;2052498;70;20053;-70
2022/02/26 08:33:26;;;;;;;;;;;;;;;3.66;58.37;93851.44;2052459;70;20054;-70
2022/02/26 08:35:51;;;;;;;;;;;;;;;4.08;56.83;93850.28;2052401;70;20459;-70
2022/02/26 08:38:16;;;;;;;;;;;;;;;4.36;57.21;93857.25;2052465;70;20047;-71
2022/02/26 08:40:42;;;;;;;;;;;;;;;4.45;55.11;93851.19;2052286;70;20116;-71
2022/02/26 08:43:07;;;;;;;;;;;;;;;4.17;55.61;93849.06;2065379;69;20047;-70
2022/02/26 08:45:33;;;;;;;;;;;;;;;3.62;56.71;93854.56;2052313;70;20054;-76
2022/02/26 08:47:58;;;;;;;;;;;;;;;3.71;57.25;93848.53;2052364;70;20082;-71
2022/02/26 08:50:24;;;;;;;;;;;;;;;3.14;58.75;93856.50;2052399;70;20206;-73
2022/02/26 08:52:49;;;;;;;;;;;;;;;3.36;58.04;93855.31;2052387;69;20111;-72
2022/02/26 08:55:15;;;;;;;;;;;;;;;3.33;57.99;93859.16;2052308;70;20119;-74
2022/02/26 08:57:40;;;;;;;;;;;;;;;3.68;57.20;93851.66;2052424;70;20078;-70
2022/02/26 09:00:07;;;;;;;;;;;;;;;3.23;58.25;93855.31;2052365;70;20051;-71
2022/02/26 09:02:32;;;;;;;;;;;;;;;2.63;59.11;93855.91;2065349;69;20053;-71
2022/02/26 09:04:58;;;;;;;;;;;;;;;2.89;57.35;93850.41;2052367;70;20038;-71
2022/02/26 09:07:23;;;;;;;;;;;;;;;3.53;56.48;93850.19;2065350;69;20043;-71
2022/02/26 09:09:51;;;;;;;;;;;;;;;3.31;56.95;93856.19;2052184;70;20067;-71
2022/02/26 09:12:17;;;;;;;;;;;;;;;3.28;58.06;93848.91;2052434;70;20050;-70
2022/02/26 09:14:42;;;;;;;;;;;;;;;3.77;55.73;93846.38;2052395;69;20050;-70
2022/02/26 09:17:08;;;;;;;;;;;;;;;4.16;55.21;93847.53;2052426;70;20511;-72
2022/02/26 09:19:33;;;;;;;;;;;;;;;3.13;55.24;93854.25;2052497;70;20053;-70
2022/02/26 09:22:03;;;;;;;;;;;;;;;3.67;54.95;93850.16;2052355;70;20046;-72
2022/02/26 09:24:28;;;;;;;;;;;;;;;4.06;53.59;93847.25;2052335;70;20125;-70
2022/02/26 09:26:54;;;;;;;;;;;;;;;3.81;54.62;93857.19;2052227;70;20552;-71
2022/02/26 09:29:19;;;;;;;;;;;;;;;4.37;53.46;93855.19;2052411;70;20051;-73
2022/02/26 09:31:50;;;;;;;;;;;;;;;4.83;51.73;93848.72;2052423;70;20127;-72
2022/02/26 09:34:16;;;;;;;;;;;;;;;4.66;53.03;93858.81;2052486;70;20050;-72
2022/02/26 09:36:42;;;;;;;;;;;;;;;5.42;51.13;93845.41;2052324;70;20141;-72
2022/02/26 09:39:07;;;;;;;;;;;;;;;5.23;50.17;93851.25;2052367;70;20505;-70
2022/02/26 09:41:33;;;;;;;;;;;;;;;5.08;52.11;93846.31;2052276;70;20058;-71
2022/02/26 09:43:59;;;;;;;;;;;;;;;5.56;50.64;93848.84;2052333;70;20082;-70
2022/02/26 09:46:24;;;;;;;;;;;;;;;5.46;50.83;93843.03;2052337;70;20112;-70
2022/02/26 09:48:50;;;;;;;;;;;;;;;5.92;50.44;93846.06;2052409;70;20046;-70
2022/02/26 09:51:16;;;;;;;;;;;;;;;6.34;49.37;93845.81;2052388;70;20043;-71
2022/02/26 09:53:42;;;;;;;;;;;;;;;6.52;48.47;93853.13;2052527;70;20086;-71
2022/02/26 09:56:07;;;;;;;;;;;;;;;6.27;46.91;93852.88;2052162;70;20074;-71
2022/02/26 09:58:33;;;;;;;;;;;;;;;6.26;47.78;93845.78;2052354;70;20425;-71
2022/02/26 10:00:58;;;;;;;;;;;;;;;6.26;47.43;93851.38;2052216;70;20138;-74
2022/02/26 10:03:25;;;;;;;;;;;;;;;6.17;47.46;93849.13;2052293;69;20051;-68
2022/02/26 10:06:13;;;;;;;;;;;;;;;5.61;48.79;93854.28;2052250;70;20090;-69
2022/02/26 10:08:43;;;;;;;;;;;;;;;5.91;47.13;93852.16;2052299;70;20509;-70
2022/02/26 10:11:21;;;;;;;;;;;;;;;6.25;47.08;93840.75;2052125;69;20050;-69
2022/02/26 10:13:47;;;;;;;;;;;;;;;5.04;48.10;93845.94;2052264;70;20413;-69
2022/02/26 10:16:12;;;;;;;;;;;;;;;5.48;47.63;93850.84;2052241;70;20049;-73
2022/02/26 10:18:49;;;;;;;;;;;;;;;5.41;47.95;93845.97;2052238;70;20038;-72
2022/02/26 10:21:26;;;;;;;;;;;;;;;6.06;46.79;93847.41;2052403;70;20074;-70
2022/02/26 10:23:53;;;;;;;;;;;;;;;5.65;46.10;93845.53;2052327;70;20146;-73
2022/02/26 10:26:23;;;;;;;;;;;;;;;5.96;45.74;93848.50;2052039;70;20055;-71
2022/02/26 10:28:49;;;;;;;;;;;;;;;6.30;45.13;93848.97;2052467;70;20046;-68
2022/02/26 10:31:14;;;;;;;;;;;;;;;6.68;44.03;93850.34;2052236;70;20066;-69
2022/02/26 10:33:39;;;;;;;;;;;;;;;5.72;43.81;93847.59;2052541;70;20090;-69
2022/02/26 10:36:06;;;;;;;;;;;;;;;6.10;44.53;93844.25;2052158;70;20240;-70
2022/02/26 10:38:32;;;;;;;;;;;;;;;6.16;44.47;93844.84;2051771;69;20117;-69
2022/02/26 10:41:08;;;;;;;;;;;;;;;5.89;44.93;93841.53;2051535;70;20471;-70
2022/02/26 10:43:43;;;;;;;;;;;;;;;6.53;43.13;93837.81;2064698;69;20154;-69
2022/02/26 10:46:15;;;;;;;;;;;;;;;6.53;43.20;93837.09;2064843;69;20431;-70
2022/02/26 10:48:41;;;;;;;;;;;;;;;6.68;43.32;93833.56;2051928;69;20049;-71
2022/02/26 10:51:12;;;;;;;;;;;;;;;6.78;42.42;93842.88;2051656;70;20095;-70
2022/02/26 10:53:41;;;;;;;;;;;;;;;7.13;42.12;93841.22;2051911;70;20080;-73
2022/02/26 10:56:06;;;;;;;;;;;;;;;7.24;40.85;93837.28;2051733;70;20148;-70
2022/02/26 10:58:32;;;;;;;;;;;;;;;7.69;41.41;93827.28;2051947;70;20138;-71
2022/02/26 11:01:04;;;;;;;;;;;;;;;8.03;40.54;93833.16;2051595;69;20504;-69
2022/02/26 11:03:30;;;;;;;;;;;;;;;9.56;39.33;93828.53;2051865;69;20053;-69
2022/02/26 11:05:56;;;;;;;;;;;;;;;10.56;37.25;93833.75;2051115;70;20054;-69
2022/02/26 11:08:22;;;;;;;;;;;;;;;10.93;35.75;93843.00;2051609;69;20086;-70
2022/02/26 11:10:51;;;;;;;;;;;;;;;12.26;34.35;93831.09;2051349;70;20050;-72
2022/02/26 11:13:17;;;;;;;;;;;;;;;13.00;33.06;93837.03;2051709;70;20046;-73
2022/02/26 11:15:44;;;;;;;;;;;;;;;13.52;30.05;93836.38;2064414;69;20073;-76
2022/02/26 11:18:11;;;;;;;;;;;;;;;13.21;29.52;93831.44;2051580;69;20057;-71
2022/02/26 11:20:38;;;;;;;;;;;;;;;11.88;31.40;93829.75;2051566;70;20058;-70
2022/02/26 11:23:05;;;;;;;;;;;;;;;11.39;29.39;93823.25;2051826;70;20485;-71
2022/02/26 11:25:30;;;;;;;;;;;;;;;13.14;30.67;93828.78;2051009;70;20059;-74
2022/02/26 11:27:56;;;;;;;;;;;;;;;12.25;30.04;93821.13;2051473;69;20076;-75
2022/02/26 11:30:25;;;;;;;;;;;;;;;11.47;29.82;93820.31;2051830;70;20086;-71
2022/02/26 11:32:50;;;;;;;;;;;;;;;9.75;30.12;93813.91;2051918;70;20141;-72
2022/02/26 11:35:17;;;;;;;;;;;;;;;11.68;30.58;93816.94;2064737;69;20154;-73
2022/02/26 11:37:42;;;;;;;;;;;;;;;12.26;29.46;93816.22;2051495;69;20509;-73
2022/02/26 11:40:12;;;;;;;;;;;;;;;11.40;30.19;93805.00;2051334;70;20474;-73
2022/02/26 11:42:38;;;;;;;;;;;;;;;9.51;31.72;93796.53;2052293;70;20062;-73
2022/02/26 11:45:05;;;;;;;;;;;;;;;9.67;32.37;93795.06;2052645;70;20072;-73
2022/02/26 11:47:51;;;;;;;;;;;;;;;9.05;31.87;93780.13;2052608;70;20133;-70
2022/02/26 11:50:21;;;;;;;;;;;;;;;8.98;32.06;93797.78;2050662;69;20091;-73
2022/02/26 11:52:51;;;;;;;;;;;;;;;8.78;32.03;93785.56;2052562;70;20051;-72
2022/02/26 11:55:20;;;;;;;;;;;;;;;10.25;31.51;93777.13;2052437;70;20042;-72
2022/02/26 11:57:47;;;;;;;;;;;;;;;11.83;29.54;93774.38;2052488;70;20072;-72
2022/02/26 12:00:14;;;;;;;;;;;;;;;11.89;29.70;93779.72;2052531;70;20406;-71
2022/02/26 12:02:40;;;;;;;;;;;;;;;10.93;30.51;93764.84;2052465;70;20148;-72
2022/02/26 12:05:07;;;;;;;;;;;;;;;10.45;30.23;93758.28;2052557;70;20143;-73
2022/02/26 12:07:37;;;;;;;;;;;;;;;11.43;29.60;93764.34;2052580;70;20054;-72
2022/02/26 12:10:04;;;;;;;;;;;;;;;13.53;29.20;93763.56;2052308;69;20043;-75
2022/02/26 12:12:30;;;;;;;;;;;;;;;15.62;25.68;93761.81;2052491;70;20053;-74
2022/02/26 12:14:57;;;;;;;;;;;;;;;17.77;24.16;93757.28;2052478;70;20070;-72
2022/02/26 12:17:22;;;;;;;;;;;;;;;19.73;21.73;93753.00;2052457;70;20066;-74
2022/02/26 12:19:51;;;;;;;;;;;;;;;18.90;19.27;93752.09;2052446;70;20120;-71
2022/02/26 12:22:17;;;;;;;;;;;;;;;16.70;20.60;93747.34;2052471;70;20050;-71
2022/02/26 12:24:49;;;;;;;;;;;;;;;19.58;20.93;93747.31;2052402;70;20057;-76
2022/02/26 12:27:15;;;;;;;;;;;;;;;20.41;20.99;93748.00;2052545;70;20062;-73
2022/02/26 12:29:44;;;;;;;;;;;;;;;21.11;19.12;93745.00;2052161;70;20116;-73
2022/02/26 12:32:20;;;;;;;;;;;;;;;20.72;19.03;93734.94;2052355;70;20038;-73
2022/02/26 12:34:51;;;;;;;;;;;;;;;21.02;17.12;93744.69;2052372;70;20066;-74
2022/02/26 12:37:30;;;;;;;;;;;;;;;18.79;19.21;93728.81;2052433;70;20492;-76
2022/02/26 12:40:00;;;;;;;;;;;;;;;18.03;19.61;93735.09;2052292;70;20428;-73
2022/02/26 12:42:27;;;;;;;;;;;;;;;20.31;19.11;93736.88;2052343;70;20138;-72
2022/02/26 12:44:55;;;;;;;;;;;;;;;22.44;17.86;93739.75;2052416;70;20116;-73
2022/02/26 12:47:20;;;;;;;;;;;;;;;20.35;17.34;93727.72;2052467;70;20050;-71
2022/02/26 12:49:46;;;;;;;;;;;;;;;21.88;15.82;93724.22;2052453;70;20425;-71
2022/02/26 12:52:12;;;;;;;;;;;;;;;22.91;16.93;93726.19;2052431;70;20420;-72